Terminal Aerodrome Forecast
Issued by NWS

Home | Current Version | Previous Version | Text Only | Print | Product List | Glossary On
Versions: 1 2 3 4 5 6 7 8 9 10 11 12 13 14
000
FTUS46 KPDT 221700
TAFALW
TAF
KALW 221720Z 2218/2318 23008KT P6SM FEW080 SCT200
     FM222200 25007KT P6SM -SHRA BKN070
     FM230300 12007KT P6SM VCSH BKN080
     FM230700 18007KT P6SM SCT080
     FM231600 21009KT P6SM FEW090=

USA.gov is the U.S. government's official web portal to all federal, state and local government web resources and services.